createdAt,value
2019-02-05T00:01:39.300Z,95.80
2019-02-05T00:04:08.371Z,95.80
2019-02-05T00:06:37.432Z,95.70
2019-02-05T00:09:10.910Z,95.70
2019-02-05T00:11:40.004Z,95.90
2019-02-05T00:14:09.276Z,96.10
2019-02-05T00:16:38.518Z,96.30
2019-02-05T00:19:07.793Z,96.40
2019-02-05T00:21:36.783Z,96.70
2019-02-05T00:24:05.907Z,96.50
2019-02-05T00:26:34.889Z,96.60
2019-02-05T00:29:04.006Z,96.50
2019-02-05T00:31:33.430Z,96.70
2019-02-05T00:34:02.352Z,96.40
2019-02-05T00:36:31.322Z,96.50
2019-02-05T00:39:00.285Z,96.20
2019-02-05T00:41:29.417Z,96.10
2019-02-05T00:43:58.457Z,95.90
2019-02-05T00:46:27.519Z,95.70
2019-02-05T00:48:56.519Z,95.80
2019-02-05T00:51:25.483Z,95.30
2019-02-05T00:53:54.475Z,95.40
2019-02-05T00:56:23.459Z,95.40
2019-02-05T00:58:52.439Z,95.40
2019-02-05T01:01:21.452Z,95.20
2019-02-05T01:03:50.447Z,95.20
2019-02-05T01:06:19.450Z,95.10
2019-02-05T01:08:48.471Z,95.10
2019-02-05T01:11:17.940Z,95.20
2019-02-05T01:13:46.862Z,95.10
2019-02-05T01:16:15.858Z,95.10
2019-02-05T01:18:44.815Z,95.10
2019-02-05T01:21:13.889Z,95.30
2019-02-05T01:23:42.919Z,95.10
2019-02-05T01:26:11.987Z,95.20
2019-02-05T01:28:41.656Z,95.00
2019-02-05T01:31:10.773Z,95.00
2019-02-05T01:33:39.744Z,95.10
2019-02-05T01:36:08.692Z,95.10
2019-02-05T01:38:37.763Z,94.80
2019-02-05T01:41:06.780Z,94.80
2019-02-05T01:43:35.852Z,95.00
2019-02-05T01:46:05.251Z,95.00
2019-02-05T01:48:34.224Z,94.90
2019-02-05T01:51:03.277Z,94.90
2019-02-05T01:53:32.317Z,94.80
2019-02-05T01:56:01.231Z,94.80
2019-02-05T01:58:30.219Z,95.00
2019-02-05T02:00:59.523Z,94.80
2019-02-05T02:03:28.475Z,94.90
2019-02-05T02:05:57.471Z,94.90
2019-02-05T02:08:26.595Z,94.80
2019-02-05T02:10:55.761Z,94.70
2019-02-05T02:13:25.174Z,94.70
2019-02-05T02:15:54.096Z,94.60
2019-02-05T02:18:23.457Z,94.50
2019-02-05T02:20:52.495Z,94.40
2019-02-05T02:23:21.707Z,94.60
2019-02-05T02:25:50.786Z,94.30
2019-02-05T02:28:19.964Z,94.60
2019-02-05T02:30:49.038Z,94.70
2019-02-05T02:33:18.506Z,94.20
2019-02-05T02:35:47.576Z,94.10
2019-02-05T02:38:16.719Z,94.20
2019-02-05T02:40:45.636Z,94.10
2019-02-05T02:43:14.752Z,94.30
2019-02-05T02:45:43.708Z,94.30
2019-02-05T02:48:13.062Z,94.40
2019-02-05T02:50:42.001Z,94.20
2019-02-05T02:53:11.078Z,94.30
2019-02-05T02:55:40.105Z,94.30
2019-02-05T02:58:09.239Z,94.40
2019-02-05T03:00:38.388Z,94.60
2019-02-05T03:03:07.937Z,94.50
2019-02-05T03:05:36.989Z,94.40
2019-02-05T03:08:06.079Z,94.20
2019-02-05T03:10:35.115Z,94.20
2019-02-05T03:13:04.242Z,94.10
2019-02-05T03:15:33.220Z,94.20
2019-02-05T03:18:02.146Z,94.20
2019-02-05T03:20:31.424Z,94.00
2019-02-05T03:23:00.516Z,94.00
2019-02-05T03:25:29.713Z,94.20
2019-02-05T03:27:58.871Z,94.10
2019-02-05T03:30:27.890Z,93.90
2019-02-05T03:32:57.002Z,93.90
2019-02-05T03:35:26.148Z,94.10
2019-02-05T03:37:55.182Z,94.10
2019-02-05T03:41:00.751Z,94.20
2019-02-05T03:43:29.796Z,94.20
2019-02-05T03:46:00.609Z,94.30
2019-02-05T03:48:31.060Z,94.40
2019-02-05T03:51:24.892Z,94.30
2019-02-05T03:54:02.264Z,94.40
2019-02-05T03:57:01.083Z,94.30
2019-02-05T04:00:16.402Z,94.30
2019-02-05T04:03:23.933Z,94.20
2019-02-05T04:06:01.614Z,94.30
2019-02-05T04:08:46.952Z,93.90
2019-02-05T04:12:01.493Z,93.80
2019-02-05T04:15:09.579Z,93.70
2019-02-05T04:18:15.177Z,93.90
2019-02-05T04:21:07.798Z,93.90
2019-02-05T04:24:18.359Z,93.80
2019-02-05T04:27:20.020Z,93.80
2019-02-05T04:30:31.985Z,93.50
2019-02-05T04:33:38.471Z,93.70
2019-02-05T04:36:39.120Z,93.70
2019-02-05T04:39:46.800Z,93.70
2019-02-05T04:42:47.369Z,93.70
2019-02-05T04:46:12.783Z,93.70
2019-02-05T04:49:24.214Z,93.50
2019-02-05T04:52:33.831Z,93.50
2019-02-05T04:55:20.851Z,93.40
2019-02-05T04:58:14.117Z,93.30
2019-02-05T05:01:36.999Z,93.30
2019-02-05T05:04:25.004Z,93.30
2019-02-05T05:07:25.639Z,93.30
2019-02-05T05:09:59.326Z,93.30
2019-02-05T05:12:29.583Z,93.40
2019-02-05T05:14:59.252Z,93.20
2019-02-05T05:17:28.328Z,93.10
2019-02-05T05:19:57.469Z,92.90
2019-02-05T05:22:26.778Z,92.90
2019-02-05T05:24:55.948Z,92.80
2019-02-05T05:27:26.072Z,92.80
2019-02-05T05:29:55.228Z,92.80
2019-02-05T05:32:24.349Z,92.50
2019-02-05T05:34:53.451Z,92.10
2019-02-05T05:37:22.833Z,92.20
2019-02-05T05:39:51.992Z,92.10
2019-02-05T05:42:20.993Z,92.20
2019-02-05T05:44:50.062Z,92.10
2019-02-05T05:47:19.080Z,92.20
2019-02-05T05:49:48.131Z,92.20
2019-02-05T05:52:17.158Z,92.10
2019-02-05T05:54:46.105Z,92.10
2019-02-05T05:57:18.458Z,91.90
2019-02-05T05:59:45.813Z,92.10
2019-02-05T06:02:14.796Z,92.00
2019-02-05T06:04:43.854Z,91.90
2019-02-05T06:07:12.877Z,92.20
2019-02-05T06:09:41.935Z,92.20
2019-02-05T06:12:10.968Z,92.30
2019-02-05T06:14:39.892Z,92.40
2019-02-05T06:17:09.062Z,92.50
2019-02-05T06:19:38.122Z,92.50
2019-02-05T06:22:07.153Z,92.50
2019-02-05T06:24:36.317Z,92.50
2019-02-05T06:27:05.430Z,92.70
2019-02-05T06:29:34.427Z,92.60
2019-02-05T06:32:04.027Z,92.60
2019-02-05T06:34:33.196Z,92.60
2019-02-05T06:37:02.212Z,92.70
2019-02-05T06:39:31.290Z,92.60
2019-02-05T06:42:00.374Z,92.70
2019-02-05T06:44:29.410Z,92.90
2019-02-05T06:46:58.480Z,92.80
2019-02-05T06:49:27.780Z,92.80
2019-02-05T06:51:56.787Z,92.90
2019-02-05T06:54:25.843Z,93.00
2019-02-05T06:56:54.837Z,93.00
2019-02-05T06:59:23.835Z,93.10
2019-02-05T07:01:52.820Z,93.30
2019-02-05T07:04:21.787Z,93.50
2019-02-05T07:06:50.793Z,93.50
2019-02-05T07:09:19.859Z,93.70
2019-02-05T07:11:48.932Z,93.60
2019-02-05T07:14:18.045Z,93.90
2019-02-05T07:16:47.133Z,93.80
2019-02-05T07:19:16.140Z,94.00
2019-02-05T07:21:45.476Z,93.90
2019-02-05T07:24:14.554Z,93.80
2019-02-05T07:26:43.560Z,93.60
2019-02-05T07:29:14.913Z,93.60
2019-02-05T07:31:44.116Z,93.50
2019-02-05T07:34:13.088Z,93.60
2019-02-05T07:36:42.094Z,93.60
2019-02-05T07:39:11.392Z,93.80
2019-02-05T07:41:40.588Z,93.80
2019-02-05T07:44:09.719Z,93.80
2019-02-05T07:46:38.829Z,93.80
2019-02-05T07:49:07.827Z,93.70
2019-02-05T07:51:36.915Z,93.80
2019-02-05T07:54:06.187Z,93.80
2019-02-05T07:56:35.611Z,94.00
2019-02-05T07:59:10.155Z,93.90
2019-02-05T08:01:35.874Z,94.00
2019-02-05T08:04:05.092Z,93.90
2019-02-05T08:06:34.088Z,94.00
2019-02-05T08:09:04.797Z,93.70
2019-02-05T08:11:33.787Z,93.80
2019-02-05T08:14:06.004Z,93.80
2019-02-05T08:16:34.107Z,93.80
2019-02-05T08:19:03.303Z,93.60
2019-02-05T08:21:32.406Z,93.70
2019-02-05T08:24:01.515Z,93.60
2019-02-05T08:26:30.644Z,93.60
2019-02-05T08:28:59.683Z,93.80
2019-02-05T08:31:29.196Z,93.80
2019-02-05T08:33:58.270Z,93.70
2019-02-05T08:36:27.276Z,93.90
2019-02-05T08:38:56.314Z,94.00
2019-02-05T08:41:25.350Z,94.20
2019-02-05T08:43:54.344Z,94.30
2019-02-05T08:46:23.411Z,94.30
2019-02-05T08:48:52.815Z,94.20
2019-02-05T08:51:21.839Z,94.40
2019-02-05T08:53:50.858Z,94.40
2019-02-05T08:56:19.868Z,94.20
2019-02-05T08:58:48.904Z,94.20
2019-02-05T09:01:18.297Z,94.50
2019-02-05T09:03:47.330Z,94.30
2019-02-05T09:06:16.568Z,94.20
2019-02-05T09:08:45.588Z,94.20
2019-02-05T09:11:14.728Z,94.00
2019-02-05T09:13:43.674Z,94.40
2019-02-05T09:16:12.911Z,94.50
2019-02-05T09:18:42.068Z,94.80
2019-02-05T09:21:11.240Z,94.80
2019-02-05T09:23:40.391Z,95.00
2019-02-05T09:26:09.473Z,94.90
2019-02-05T09:28:38.488Z,94.70
2019-02-05T09:31:07.500Z,94.80
2019-02-05T09:33:36.528Z,95.00
2019-02-05T09:36:05.510Z,95.20
2019-02-05T09:38:34.612Z,95.70
2019-02-05T09:41:03.690Z,96.10
2019-02-05T09:43:32.850Z,96.40
2019-02-05T09:46:01.890Z,96.40
2019-02-05T09:48:30.991Z,96.40
2019-02-05T09:51:03.220Z,96.10
2019-02-05T09:53:32.244Z,95.90
2019-02-05T09:56:01.525Z,95.70
2019-02-05T09:58:30.645Z,95.60
2019-02-05T10:00:59.905Z,95.30
2019-02-05T10:03:28.957Z,95.30
2019-02-05T10:05:57.925Z,95.20
2019-02-05T10:08:27.024Z,95.00
2019-02-05T10:10:56.061Z,94.80
2019-02-05T10:13:25.329Z,94.70
2019-02-05T10:15:54.545Z,94.40
2019-02-05T10:18:23.531Z,94.50
2019-02-05T10:20:53.505Z,94.50
2019-02-05T10:23:22.694Z,94.40
2019-02-05T10:25:51.771Z,94.50
2019-02-05T10:28:20.848Z,94.10
2019-02-05T10:30:49.892Z,94.00
2019-02-05T10:33:18.960Z,93.90
2019-02-05T10:35:47.996Z,94.40
2019-02-05T10:38:17.501Z,93.90
2019-02-05T10:40:46.581Z,94.00
2019-02-05T10:43:15.644Z,93.60
2019-02-05T10:45:44.999Z,93.50
2019-02-05T10:48:14.165Z,93.50
2019-02-05T10:50:43.200Z,93.60
2019-02-05T10:53:12.290Z,93.40
2019-02-05T10:55:41.384Z,93.40
2019-02-05T10:58:10.643Z,93.50
2019-02-05T11:00:40.174Z,93.70
2019-02-05T11:03:10.127Z,93.60
2019-02-05T11:05:39.204Z,93.50
2019-02-05T11:08:08.962Z,93.50
2019-02-05T11:10:38.091Z,93.70
2019-02-05T11:13:07.840Z,93.50
2019-02-05T11:15:36.933Z,94.00
2019-02-05T11:18:08.217Z,94.00
2019-02-05T11:20:37.388Z,94.20
2019-02-05T11:23:07.363Z,94.20
2019-02-05T11:25:36.948Z,93.90
2019-02-05T11:28:06.015Z,94.10
2019-02-05T11:30:40.155Z,93.70
2019-02-05T11:33:09.164Z,94.10
2019-02-05T11:35:38.570Z,94.30
2019-02-05T11:38:08.853Z,94.30
2019-02-05T11:40:38.740Z,94.20
2019-02-05T11:43:07.815Z,94.30
2019-02-05T11:45:36.996Z,94.10
2019-02-05T11:48:09.544Z,94.80
2019-02-05T11:50:38.523Z,94.70
2019-02-05T11:53:07.743Z,95.30
2019-02-05T11:55:36.866Z,95.20
2019-02-05T11:58:06.026Z,95.20
2019-02-05T12:01:09.587Z,95.20
2019-02-05T12:03:38.674Z,94.80
2019-02-05T12:06:07.769Z,94.70
2019-02-05T12:08:36.816Z,94.90
2019-02-05T12:11:05.940Z,95.10
2019-02-05T12:13:35.009Z,95.10
2019-02-05T12:16:05.732Z,95.00
2019-02-05T12:18:34.735Z,95.20
2019-02-05T12:21:03.934Z,95.20
2019-02-05T12:23:33.015Z,95.00
2019-02-05T12:26:02.059Z,95.30
2019-02-05T12:28:31.201Z,95.50
2019-02-05T12:31:00.287Z,95.50
2019-02-05T12:33:29.751Z,95.60
2019-02-05T12:35:58.920Z,95.50
2019-02-05T12:38:27.919Z,95.40
2019-02-05T12:40:56.960Z,95.60
2019-02-05T12:43:26.104Z,95.50
2019-02-05T12:45:55.248Z,95.70
2019-02-05T12:48:24.432Z,95.80
2019-02-05T12:50:53.593Z,95.90
2019-02-05T12:53:22.767Z,96.00
2019-02-05T12:55:51.711Z,96.10
2019-02-05T12:58:20.737Z,95.90
2019-02-05T13:00:59.323Z,95.70
2019-02-05T13:03:23.185Z,95.90
2019-02-05T13:05:52.773Z,96.00
2019-02-05T13:08:21.726Z,95.80
2019-02-05T13:10:52.450Z,95.80
2019-02-05T13:13:21.676Z,95.80
2019-02-05T13:15:50.674Z,95.90
2019-02-05T13:18:19.987Z,95.50
2019-02-05T13:20:49.290Z,95.40
2019-02-05T13:23:18.280Z,95.10
2019-02-05T13:25:47.229Z,95.30
2019-02-05T13:28:16.287Z,95.80
2019-02-05T13:30:45.420Z,95.90
2019-02-05T13:33:16.120Z,96.20
2019-02-05T13:35:45.359Z,96.20
2019-02-05T13:38:14.375Z,96.20
2019-02-05T13:40:45.873Z,96.20
2019-02-05T13:43:14.873Z,96.50
2019-02-05T13:45:44.150Z,96.40
2019-02-05T13:48:13.440Z,96.50
2019-02-05T13:50:42.667Z,96.40
2019-02-05T13:53:11.788Z,96.40
2019-02-05T13:55:44.411Z,96.70
2019-02-05T13:58:15.742Z,96.60
2019-02-05T14:00:49.770Z,96.50
2019-02-05T14:03:18.894Z,96.50
2019-02-05T14:05:48.152Z,96.50
2019-02-05T14:08:17.189Z,96.40
2019-02-05T14:10:47.102Z,96.50
2019-02-05T14:13:16.351Z,95.90
2019-02-05T14:15:47.699Z,95.60
2019-02-05T14:18:16.677Z,95.70
2019-02-05T14:20:45.676Z,95.70
2019-02-05T14:23:14.583Z,95.10
2019-02-05T14:25:43.627Z,95.50
2019-02-05T14:28:12.552Z,95.30
2019-02-05T14:30:51.024Z,95.20
2019-02-05T14:33:20.124Z,95.20
2019-02-05T14:35:49.083Z,95.50
2019-02-05T14:38:18.089Z,95.60
2019-02-05T14:40:47.278Z,95.60
2019-02-05T14:43:16.373Z,95.60
2019-02-05T14:45:45.744Z,95.90
2019-02-05T14:48:14.756Z,96.30
2019-02-05T14:50:44.518Z,96.50
2019-02-05T14:53:13.702Z,96.80
2019-02-05T14:55:42.732Z,96.90
2019-02-05T14:58:13.475Z,97.00
2019-02-05T15:00:42.632Z,96.90
2019-02-05T15:03:12.659Z,96.80
2019-02-05T15:05:42.483Z,97.10
2019-02-05T15:08:12.597Z,96.90
2019-02-05T15:10:44.938Z,97.30
2019-02-05T15:13:16.089Z,97.30
2019-02-05T15:15:45.064Z,97.50
2019-02-05T15:18:18.544Z,97.70
2019-02-05T15:20:49.030Z,97.70
2019-02-05T15:23:18.029Z,97.60
2019-02-05T15:25:47.229Z,97.80
2019-02-05T15:28:16.235Z,98.00
2019-02-05T15:30:45.410Z,97.80
2019-02-05T15:33:24.438Z,97.80
2019-02-05T15:36:01.840Z,97.80
2019-02-05T15:38:31.570Z,97.80
2019-02-05T15:41:00.717Z,98.00
2019-02-05T15:43:29.767Z,98.00
2019-02-05T15:45:58.787Z,98.00
2019-02-05T15:48:27.713Z,98.00
2019-02-05T15:50:56.725Z,97.80
2019-02-05T15:53:26.277Z,98.00
2019-02-05T15:55:55.308Z,98.00
2019-02-05T15:58:24.426Z,98.10
2019-02-05T16:00:53.538Z,98.20
2019-02-05T16:03:22.638Z,98.20
2019-02-05T16:05:51.683Z,98.00
2019-02-05T16:08:21.096Z,98.60
2019-02-05T16:10:50.169Z,98.10
2019-02-05T16:13:19.148Z,98.20
2019-02-05T16:15:48.131Z,98.20
2019-02-05T16:18:17.213Z,98.30
2019-02-05T16:20:46.249Z,98.30
2019-02-05T16:23:15.960Z,98.30
2019-02-05T16:25:45.026Z,98.40
2019-02-05T16:28:14.015Z,98.60
2019-02-05T16:30:43.007Z,98.50
2019-02-05T16:33:12.021Z,98.70
2019-02-05T16:35:41.024Z,98.60
2019-02-05T16:38:10.136Z,98.60
2019-02-05T16:40:39.409Z,98.40
2019-02-05T16:43:08.583Z,98.30
2019-02-05T16:45:37.857Z,98.40
2019-02-05T16:48:06.926Z,98.40
2019-02-05T16:50:38.166Z,98.60
2019-02-05T16:53:08.352Z,98.60
2019-02-05T16:55:37.827Z,98.70
2019-02-05T16:58:07.196Z,98.80
2019-02-05T17:00:36.360Z,98.70
2019-02-05T17:03:07.164Z,98.80
2019-02-05T17:05:37.821Z,99.20
2019-02-05T17:08:07.127Z,98.90
2019-02-05T17:10:36.205Z,98.90
2019-02-05T17:13:05.931Z,98.90
2019-02-05T17:15:35.231Z,99.00
2019-02-05T17:18:04.616Z,99.00
2019-02-05T17:20:34.230Z,99.10
2019-02-05T17:23:04.172Z,99.10
2019-02-05T17:25:35.862Z,99.10
2019-02-05T17:28:04.993Z,99.10
2019-02-05T17:30:36.215Z,99.10
2019-02-05T17:33:05.427Z,99.20
2019-02-05T17:35:35.467Z,99.30
2019-02-05T17:38:06.993Z,99.40
2019-02-05T17:40:36.085Z,99.40
2019-02-05T17:43:05.937Z,99.40
2019-02-05T17:45:36.760Z,99.40
2019-02-05T17:48:11.217Z,99.50
2019-02-05T17:50:40.524Z,99.30
2019-02-05T17:53:09.517Z,99.40
2019-02-05T17:55:38.850Z,99.30
2019-02-05T17:58:07.968Z,99.30
2019-02-05T18:00:44.856Z,99.30
2019-02-05T18:03:13.754Z,99.30
2019-02-05T18:05:42.769Z,99.50
2019-02-05T18:08:12.423Z,99.40
2019-02-05T18:10:42.064Z,99.30
2019-02-05T18:13:11.310Z,99.30
2019-02-05T18:15:43.932Z,99.30
2019-02-05T18:18:13.012Z,99.30
2019-02-05T18:20:42.101Z,99.30
2019-02-05T18:23:11.208Z,99.20
2019-02-05T18:25:40.436Z,99.20
2019-02-05T18:28:09.625Z,99.20
2019-02-05T18:30:38.637Z,99.20
2019-02-05T18:33:07.731Z,99.10
2019-02-05T18:35:36.895Z,99.10
2019-02-05T18:38:07.223Z,99.10
2019-02-05T18:40:36.392Z,99.40
2019-02-05T18:43:05.872Z,99.20
2019-02-05T18:45:34.912Z,99.20
2019-02-05T18:48:04.069Z,99.40
2019-02-05T18:50:33.309Z,99.40
2019-02-05T18:53:02.423Z,99.40
2019-02-05T18:55:32.037Z,99.40
2019-02-05T18:58:08.771Z,99.50
2019-02-05T19:00:34.313Z,99.50
2019-02-05T19:03:14.522Z,99.50
2019-02-05T19:05:34.648Z,99.70
2019-02-05T19:08:03.730Z,99.60
2019-02-05T19:10:32.893Z,99.70
2019-02-05T19:13:02.101Z,99.70
2019-02-05T19:15:35.752Z,99.70
2019-02-05T19:18:05.872Z,99.70
2019-02-05T19:20:34.954Z,99.80
2019-02-05T19:23:06.765Z,99.70
2019-02-05T19:25:52.408Z,99.70
2019-02-05T19:28:32.835Z,99.80
2019-02-05T19:31:10.584Z,99.80
2019-02-05T19:33:39.640Z,99.80
2019-02-05T19:36:08.581Z,99.90
2019-02-05T19:38:37.553Z,99.90
2019-02-05T19:41:06.755Z,99.90
2019-02-05T19:43:35.761Z,99.80
2019-02-05T19:46:25.332Z,99.90
2019-02-05T19:49:01.662Z,99.90
2019-02-05T19:51:31.036Z,99.80
2019-02-05T19:54:00.112Z,99.80
2019-02-05T19:56:37.863Z,99.90
2019-02-05T19:59:00.025Z,99.90
2019-02-05T20:01:29.139Z,99.90
2019-02-05T20:03:58.127Z,99.90
2019-02-05T20:06:27.091Z,99.90
2019-02-05T20:08:56.099Z,99.90
2019-02-05T20:11:25.180Z,99.90
2019-02-05T20:13:54.295Z,99.80
2019-02-05T20:16:23.366Z,99.90
2019-02-05T20:18:52.332Z,99.80
2019-02-05T20:21:21.306Z,99.80
2019-02-05T20:23:50.264Z,99.80
2019-02-05T20:26:19.692Z,99.90
2019-02-05T20:28:48.622Z,99.70
2019-02-05T20:31:17.639Z,99.80
2019-02-05T20:33:49.892Z,99.80
2019-02-05T20:36:17.465Z,99.70
2019-02-05T20:38:46.813Z,99.80
2019-02-05T20:41:15.775Z,99.80
2019-02-05T20:43:44.741Z,99.90
2019-02-05T20:46:13.884Z,99.70
2019-02-05T20:48:42.880Z,99.90
2019-02-05T20:51:11.815Z,99.90
2019-02-05T20:53:40.917Z,99.90
2019-02-05T20:56:10.039Z,99.90
2019-02-05T20:58:39.152Z,99.90
2019-02-05T21:01:08.315Z,99.90
2019-02-05T21:03:37.335Z,99.90
2019-02-05T21:06:07.225Z,99.90
2019-02-05T21:08:36.433Z,99.90
2019-02-05T21:11:05.593Z,99.90
2019-02-05T21:13:34.699Z,99.90
2019-02-05T21:16:04.591Z,99.90
2019-02-05T21:18:33.552Z,99.90
2019-02-05T21:21:02.709Z,99.90
2019-02-05T21:23:31.890Z,99.90
2019-02-05T21:26:00.816Z,99.90
2019-02-05T21:28:30.143Z,99.90
2019-02-05T21:31:02.299Z,99.90
2019-02-05T21:33:31.807Z,99.90
2019-02-05T21:36:03.020Z,99.90
2019-02-05T21:38:45.439Z,99.90
2019-02-05T21:41:13.596Z,99.90
2019-02-05T21:43:43.148Z,99.90
2019-02-05T21:46:12.108Z,99.90
2019-02-05T21:48:41.149Z,99.90
2019-02-05T21:51:10.199Z,99.90
2019-02-05T21:53:39.299Z,99.90
2019-02-05T21:56:08.433Z,99.90
2019-02-05T21:58:39.929Z,99.90
2019-02-05T22:01:09.254Z,99.90
2019-02-05T22:03:38.546Z,99.90
2019-02-05T22:06:07.650Z,99.90
2019-02-05T22:08:36.796Z,99.90
2019-02-05T22:11:06.021Z,99.90
2019-02-05T22:13:35.012Z,99.90
2019-02-05T22:16:04.119Z,99.90
2019-02-05T22:18:33.205Z,99.90
2019-02-05T22:21:02.647Z,99.90
2019-02-05T22:23:33.721Z,99.90
2019-02-05T22:26:02.728Z,99.90
2019-02-05T22:28:31.771Z,99.90
2019-02-05T22:31:02.266Z,99.90
2019-02-05T22:33:31.280Z,99.90
2019-02-05T22:36:00.767Z,99.90
2019-02-05T22:38:29.889Z,99.90
2019-02-05T22:40:59.881Z,99.90
2019-02-05T22:43:28.929Z,99.90
2019-02-05T22:45:58.031Z,99.90
2019-02-05T22:48:27.561Z,99.90
2019-02-05T22:50:56.743Z,99.90
2019-02-05T22:53:26.209Z,99.90
2019-02-05T22:55:55.212Z,99.90
2019-02-05T22:58:24.614Z,99.90
2019-02-05T23:01:18.979Z,99.90
2019-02-05T23:03:59.546Z,99.90
2019-02-05T23:06:50.750Z,99.90
2019-02-05T23:09:26.308Z,99.90
2019-02-05T23:12:19.484Z,99.90
2019-02-05T23:14:51.857Z,99.90
2019-02-05T23:17:21.057Z,99.90
2019-02-05T23:19:50.121Z,99.90
2019-02-05T23:22:19.059Z,99.90
2019-02-05T23:24:48.159Z,99.90
2019-02-05T23:27:17.189Z,99.90
2019-02-05T23:29:46.496Z,99.90
2019-02-05T23:32:15.557Z,99.90
2019-02-05T23:34:44.548Z,99.90
2019-02-05T23:37:13.558Z,99.90
2019-02-05T23:39:42.579Z,99.90
2019-02-05T23:42:11.790Z,99.90
2019-02-05T23:44:41.122Z,99.90
2019-02-05T23:47:10.173Z,99.90
2019-02-05T23:49:39.232Z,99.90
2019-02-05T23:52:08.377Z,99.90
2019-02-05T23:54:37.389Z,99.90
2019-02-05T23:57:06.491Z,99.90
2019-02-05T23:59:37.188Z,99.90
